createdAt,value
2023-02-24T00:02:21.568Z,21.75
2023-02-24T00:05:07.891Z,22.05
2023-02-24T00:07:53.802Z,22.15
2023-02-24T00:10:40.125Z,22.02
2023-02-24T00:13:07.813Z,20.67
2023-02-24T00:16:01.048Z,21.92
2023-02-24T00:18:32.698Z,23.15
2023-02-24T00:21:20.527Z,21.98
2023-02-24T00:24:06.866Z,23.20
2023-02-24T00:27:00.053Z,22.42
2023-02-24T00:29:29.216Z,22.58
2023-02-24T00:32:18.137Z,21.38
2023-02-24T00:35:04.374Z,23.80
2023-02-24T00:37:51.473Z,22.80
2023-02-24T00:40:37.352Z,22.75
2023-02-24T00:43:23.071Z,23.13
2023-02-24T00:46:11.837Z,20.15
2023-02-24T00:48:41.929Z,21.42
2023-02-24T00:51:30.916Z,20.80
2023-02-24T00:53:58.438Z,20.27
2023-02-24T00:56:46.254Z,20.92
2023-02-24T00:59:33.194Z,19.63
2023-02-24T01:02:20.438Z,19.80
2023-02-24T01:05:09.502Z,18.65
2023-02-24T01:07:55.336Z,20.52
2023-02-24T01:11:03.033Z,17.42
2023-02-24T01:13:50.466Z,18.02
2023-02-24T01:16:21.039Z,18.23
2023-02-24T01:19:07.289Z,17.52
2023-02-24T01:21:55.641Z,19.55
2023-02-24T01:24:23.859Z,18.77
2023-02-24T01:27:12.361Z,17.92
2023-02-24T01:30:01.211Z,18.63
2023-02-24T01:32:41.123Z,17.58
2023-02-24T01:35:29.392Z,16.60
2023-02-24T01:38:15.322Z,16.85
2023-02-24T01:41:01.015Z,17.70
2023-02-24T01:44:31.450Z,18.15
2023-02-24T01:47:23.178Z,17.33
2023-02-24T01:50:14.973Z,16.07
2023-02-24T01:53:04.558Z,17.08
2023-02-24T01:55:52.266Z,17.63
2023-02-24T01:58:40.375Z,17.45
2023-02-24T02:01:26.395Z,16.40
2023-02-24T02:04:40.410Z,16.52
2023-02-24T02:07:29.510Z,16.52
2023-02-24T02:10:00.510Z,17.88
2023-02-24T02:12:46.684Z,16.52
2023-02-24T02:15:35.719Z,16.40
2023-02-24T02:18:45.125Z,17.30
2023-02-24T02:21:44.952Z,15.35
2023-02-24T02:24:27.340Z,16.63
2023-02-24T02:27:29.555Z,17.65
2023-02-24T02:30:23.903Z,18.10
2023-02-24T02:33:48.431Z,17.70
2023-02-24T02:37:01.981Z,16.08
2023-02-24T02:39:39.038Z,16.58
2023-02-24T02:42:50.444Z,16.90
2023-02-24T02:45:48.185Z,17.85
2023-02-24T02:48:57.486Z,17.00
2023-02-24T02:51:52.030Z,18.30
2023-02-24T02:54:35.502Z,15.95
2023-02-24T02:57:27.224Z,18.25
2023-02-24T03:00:37.229Z,15.27
2023-02-24T03:03:26.211Z,15.65
2023-02-24T03:05:59.694Z,16.52
2023-02-24T03:09:22.763Z,16.80
2023-02-24T03:12:18.313Z,16.20
2023-02-24T03:15:10.656Z,15.68
2023-02-24T03:18:10.157Z,13.80
2023-02-24T03:21:24.962Z,14.88
2023-02-24T03:24:13.045Z,14.75
2023-02-24T03:27:06.977Z,14.90
2023-02-24T03:30:18.029Z,14.00
2023-02-24T03:33:18.062Z,13.98
2023-02-24T03:36:04.493Z,14.35
2023-02-24T03:38:50.280Z,15.23
2023-02-24T03:41:43.360Z,16.10
2023-02-24T03:44:29.428Z,15.68
2023-02-24T03:47:20.349Z,16.40
2023-02-24T03:50:18.807Z,14.73
2023-02-24T03:53:30.522Z,16.50
2023-02-24T03:56:45.960Z,16.92
2023-02-24T03:59:52.890Z,17.00
2023-02-24T04:02:38.967Z,17.02
2023-02-24T04:05:29.245Z,17.98
2023-02-24T04:08:17.364Z,16.30
2023-02-24T04:10:59.638Z,18.20
2023-02-24T04:13:50.956Z,18.45
2023-02-24T04:17:08.312Z,18.25
2023-02-24T04:19:57.790Z,18.92
2023-02-24T04:22:48.960Z,17.80
2023-02-24T04:25:35.841Z,19.17
2023-02-24T04:28:23.877Z,19.40
2023-02-24T04:31:17.766Z,18.40
2023-02-24T04:34:07.370Z,18.88
2023-02-24T04:36:52.929Z,18.13
2023-02-24T04:39:40.415Z,19.00
2023-02-24T04:42:26.654Z,17.80
2023-02-24T04:45:16.948Z,17.77
2023-02-24T04:48:04.029Z,18.40
2023-02-24T04:50:55.185Z,18.58
2023-02-24T04:53:41.116Z,20.20
2023-02-24T04:56:29.061Z,20.70
2023-02-24T04:59:15.557Z,19.52
2023-02-24T05:02:01.769Z,18.40
2023-02-24T05:04:49.738Z,19.42
2023-02-24T05:07:35.445Z,20.58
2023-02-24T05:10:02.928Z,20.10
2023-02-24T05:12:48.932Z,20.60
2023-02-24T05:15:34.293Z,21.63
2023-02-24T05:18:07.804Z,21.38
2023-02-24T05:21:14.104Z,21.52
2023-02-24T05:24:05.076Z,21.10
2023-02-24T05:26:58.065Z,20.05
2023-02-24T05:29:44.221Z,19.77
2023-02-24T05:32:32.253Z,21.60
2023-02-24T05:35:19.530Z,21.25
2023-02-24T05:37:59.190Z,21.55
2023-02-24T05:40:32.827Z,20.95
2023-02-24T05:43:19.293Z,21.23
2023-02-24T05:46:07.189Z,21.95
2023-02-24T05:48:56.695Z,21.15
2023-02-24T05:51:54.682Z,21.77
2023-02-24T05:54:42.551Z,25.20
2023-02-24T05:57:33.048Z,21.40
2023-02-24T06:00:19.338Z,21.80
2023-02-24T06:03:17.238Z,21.58
2023-02-24T06:06:09.109Z,22.75
2023-02-24T06:08:50.978Z,22.70
2023-02-24T06:11:21.726Z,23.85
2023-02-24T06:13:49.509Z,25.20
2023-02-24T06:16:19.142Z,26.10
2023-02-24T06:18:51.762Z,24.92
2023-02-24T06:21:20.255Z,25.10
2023-02-24T06:23:47.915Z,25.90
2023-02-24T06:26:19.690Z,25.85
2023-02-24T06:29:05.774Z,26.20
2023-02-24T06:31:54.775Z,25.88
2023-02-24T06:34:43.435Z,25.92
2023-02-24T06:37:23.563Z,25.95
2023-02-24T06:40:16.246Z,24.55
2023-02-24T06:43:01.241Z,24.58
2023-02-24T06:45:32.252Z,27.63
2023-02-24T06:48:04.262Z,26.95
2023-02-24T06:50:51.743Z,26.67
2023-02-24T06:53:43.489Z,27.67
2023-02-24T06:56:20.011Z,27.65
2023-02-24T06:59:07.047Z,28.98
2023-02-24T07:01:54.112Z,28.42
2023-02-24T07:04:44.478Z,27.75
2023-02-24T07:07:30.296Z,30.70
2023-02-24T07:10:00.506Z,30.13
2023-02-24T07:12:36.853Z,27.25
2023-02-24T07:15:24.597Z,25.00
2023-02-24T07:18:14.859Z,25.88
2023-02-24T07:20:46.848Z,26.87
2023-02-24T07:23:16.021Z,27.42
2023-02-24T07:25:46.428Z,28.23
2023-02-24T07:28:34.527Z,27.08
2023-02-24T07:31:08.451Z,26.33
2023-02-24T07:33:57.336Z,27.30
2023-02-24T07:36:30.134Z,28.05
2023-02-24T07:39:17.946Z,26.30
2023-02-24T07:42:06.874Z,26.48
2023-02-24T07:44:34.536Z,27.25
2023-02-24T07:47:22.993Z,26.02
2023-02-24T07:50:14.127Z,25.98
2023-02-24T07:53:05.244Z,26.75
2023-02-24T07:55:36.036Z,24.55
2023-02-24T07:58:05.990Z,25.58
2023-02-24T08:01:00.955Z,23.83
2023-02-24T08:03:46.575Z,24.95
2023-02-24T08:06:15.596Z,22.45
2023-02-24T08:09:43.130Z,22.58
2023-02-24T08:12:11.759Z,22.55
2023-02-24T08:15:00.349Z,21.20
2023-02-24T08:17:47.648Z,20.98
2023-02-24T08:20:15.697Z,21.38
2023-02-24T08:23:01.426Z,21.70
2023-02-24T08:25:47.155Z,20.10
2023-02-24T08:28:14.689Z,19.77
2023-02-24T08:30:47.231Z,19.67
2023-02-24T08:33:23.181Z,19.73
2023-02-24T08:36:09.490Z,19.00
2023-02-24T08:38:59.411Z,21.38
2023-02-24T08:41:45.002Z,18.48
2023-02-24T08:44:35.126Z,18.35
2023-02-24T08:47:31.058Z,16.90
2023-02-24T08:50:16.407Z,16.55
2023-02-24T08:53:03.255Z,16.23
2023-02-24T08:55:52.617Z,16.25
2023-02-24T08:58:28.820Z,15.73
2023-02-24T09:01:19.440Z,13.80
2023-02-24T09:04:18.820Z,16.27
2023-02-24T09:07:12.105Z,15.60
2023-02-24T09:09:59.959Z,14.52
2023-02-24T09:12:42.360Z,14.82
2023-02-24T09:15:12.226Z,14.88
2023-02-24T09:18:07.793Z,14.13
2023-02-24T09:20:54.131Z,14.63
2023-02-24T09:23:49.035Z,14.23
2023-02-24T09:26:44.960Z,13.88
2023-02-24T09:29:49.323Z,15.35
2023-02-24T09:32:38.998Z,14.20
2023-02-24T09:35:06.669Z,14.40
2023-02-24T09:37:34.418Z,15.07
2023-02-24T09:40:20.489Z,14.23
2023-02-24T09:43:17.921Z,15.02
2023-02-24T09:46:17.307Z,13.32
2023-02-24T09:48:54.928Z,14.13
2023-02-24T09:51:43.529Z,14.90
2023-02-24T09:54:35.479Z,14.82
2023-02-24T09:57:25.685Z,15.05
2023-02-24T10:00:25.068Z,15.18
2023-02-24T10:03:50.930Z,16.20
2023-02-24T10:06:45.048Z,17.45
2023-02-24T10:09:41.383Z,17.25
2023-02-24T10:12:40.301Z,17.55
2023-02-24T10:15:57.011Z,16.48
2023-02-24T10:18:27.388Z,17.92
2023-02-24T10:22:00.570Z,17.67
2023-02-24T10:25:01.626Z,16.77
2023-02-24T10:28:20.258Z,16.08
2023-02-24T10:31:26.582Z,17.02
2023-02-24T10:34:08.650Z,15.15
2023-02-24T10:36:57.665Z,16.40
2023-02-24T10:39:44.152Z,16.33
2023-02-24T10:42:30.940Z,17.20
2023-02-24T10:45:23.760Z,16.13
2023-02-24T10:51:38.608Z,17.00
2023-02-24T10:54:48.494Z,16.85
2023-02-24T10:57:58.151Z,15.80
2023-02-24T11:01:17.496Z,14.02
2023-02-24T11:04:22.800Z,15.43
2023-02-24T11:07:25.665Z,15.48
2023-02-24T11:10:32.497Z,15.57
2023-02-24T11:13:38.748Z,15.05
2023-02-24T11:16:27.710Z,15.65
2023-02-24T11:18:57.186Z,14.63
2023-02-24T11:21:43.825Z,14.55
2023-02-24T11:24:17.852Z,14.23
2023-02-24T11:27:04.517Z,14.05
2023-02-24T11:30:08.600Z,14.70
2023-02-24T11:33:16.586Z,12.90
2023-02-24T11:36:37.979Z,13.10
2023-02-24T11:39:47.531Z,13.05
2023-02-24T11:42:48.635Z,12.45
2023-02-24T11:45:46.672Z,12.82
2023-02-24T11:48:37.908Z,12.40
2023-02-24T11:51:37.269Z,11.95
2023-02-24T11:54:26.371Z,13.23
2023-02-24T11:57:04.248Z,11.73
2023-02-24T12:00:04.896Z,12.10
2023-02-24T12:03:03.571Z,12.38
2023-02-24T12:05:39.187Z,11.15
2023-02-24T12:08:31.874Z,11.45
2023-02-24T12:11:33.713Z,12.75
2023-02-24T12:14:23.432Z,12.90
2023-02-24T12:17:21.212Z,12.55
2023-02-24T12:20:41.645Z,13.10
2023-02-24T12:23:34.035Z,11.68
2023-02-24T12:26:28.887Z,12.02
2023-02-24T12:29:49.560Z,13.13
2023-02-24T12:32:51.969Z,11.90
2023-02-24T12:35:59.770Z,12.30
2023-02-24T12:39:07.531Z,12.30
2023-02-24T12:41:59.434Z,13.45
2023-02-24T12:44:36.518Z,11.18
2023-02-24T12:47:36.363Z,10.93
2023-02-24T12:50:34.700Z,12.80
2023-02-24T12:53:04.871Z,11.77
2023-02-24T12:55:56.556Z,11.95
2023-02-24T12:58:45.515Z,12.15
2023-02-24T13:01:47.341Z,12.13
2023-02-24T13:04:31.610Z,11.27
2023-02-24T13:07:29.296Z,11.23
2023-02-24T13:10:22.422Z,12.38
2023-02-24T13:13:28.185Z,12.23
2023-02-24T13:16:40.468Z,12.35
2023-02-24T13:19:26.375Z,12.50
2023-02-24T13:22:13.775Z,12.50
2023-02-24T13:24:43.693Z,12.73
2023-02-24T13:27:35.408Z,13.50
2023-02-24T13:30:41.673Z,12.30
2023-02-24T13:33:18.272Z,12.70
2023-02-24T13:36:23.077Z,11.25
2023-02-24T13:39:32.734Z,12.68
2023-02-24T13:42:28.554Z,13.05
2023-02-24T13:45:04.081Z,12.93
2023-02-24T13:47:42.327Z,12.57
2023-02-24T13:50:52.132Z,12.10
2023-02-24T13:54:15.768Z,12.20
2023-02-24T13:57:12.680Z,12.48
2023-02-24T14:00:22.067Z,10.15
2023-02-24T14:03:27.678Z,10.85
2023-02-24T14:06:25.129Z,11.20
2023-02-24T14:09:17.084Z,10.35
2023-02-24T14:12:31.145Z,10.40
2023-02-24T14:15:16.786Z,10.63
2023-02-24T14:18:05.759Z,9.82
2023-02-24T14:20:54.946Z,9.30
2023-02-24T14:23:40.949Z,9.15
2023-02-24T14:26:28.899Z,9.07
2023-02-24T14:29:20.012Z,8.75
2023-02-24T14:32:18.486Z,10.20
2023-02-24T14:35:04.842Z,9.70
2023-02-24T14:37:54.962Z,9.07
2023-02-24T14:40:48.099Z,9.40
2023-02-24T14:43:41.994Z,8.65
2023-02-24T14:46:28.032Z,8.60
2023-02-24T14:49:19.713Z,9.02
2023-02-24T14:52:03.593Z,8.27
2023-02-24T14:54:57.107Z,7.93
2023-02-24T14:57:45.805Z,8.48
2023-02-24T15:00:37.910Z,8.35
2023-02-24T15:03:43.561Z,8.43
2023-02-24T15:06:40.600Z,8.25
2023-02-24T15:09:33.375Z,9.02
2023-02-24T15:12:33.163Z,7.32
2023-02-24T15:15:05.846Z,8.32
2023-02-24T15:17:53.657Z,8.35
2023-02-24T15:20:40.882Z,9.15
2023-02-24T15:23:28.028Z,7.22
2023-02-24T15:25:55.676Z,8.40
2023-02-24T15:28:42.369Z,7.82
2023-02-24T15:31:30.197Z,7.63
2023-02-24T15:34:21.078Z,7.10
2023-02-24T15:37:49.555Z,7.35
2023-02-24T15:40:21.754Z,7.80
2023-02-24T15:43:14.313Z,7.93
2023-02-24T15:48:43.784Z,7.72
2023-02-24T15:51:45.323Z,7.28
2023-02-24T15:54:19.726Z,8.80
2023-02-24T15:56:48.617Z,7.43
2023-02-24T15:59:22.081Z,6.88
2023-02-24T16:02:20.315Z,8.05
2023-02-24T16:04:53.487Z,7.15
2023-02-24T16:07:42.832Z,7.10
2023-02-24T16:10:27.701Z,7.60
2023-02-24T16:13:21.730Z,7.65
2023-02-24T16:18:56.832Z,5.93
2023-02-24T16:21:24.361Z,7.15
2023-02-24T16:23:51.869Z,5.97
2023-02-24T16:26:23.125Z,7.15
2023-02-24T16:28:57.420Z,6.40
2023-02-24T16:31:30.603Z,7.10
2023-02-24T16:34:00.562Z,6.97
2023-02-24T16:36:28.666Z,6.47
2023-02-24T16:39:15.602Z,6.88
2023-02-24T16:42:06.423Z,6.60
2023-02-24T16:44:53.313Z,7.05
2023-02-24T16:47:25.429Z,6.30
2023-02-24T16:50:29.000Z,7.32
2023-02-24T16:52:56.636Z,7.10
2023-02-24T16:55:43.382Z,6.68
2023-02-24T16:58:26.220Z,6.65
2023-02-24T17:01:20.522Z,6.03
2023-02-24T17:04:09.855Z,5.85
2023-02-24T17:06:37.556Z,7.00
2023-02-24T17:09:23.434Z,6.78
2023-02-24T17:12:17.289Z,5.85
2023-02-24T17:15:03.226Z,5.07
2023-02-24T17:17:51.266Z,5.55
2023-02-24T17:20:39.286Z,5.65
2023-02-24T17:23:25.030Z,6.75
2023-02-24T17:26:14.485Z,5.25
2023-02-24T17:29:00.501Z,5.78
2023-02-24T17:31:46.591Z,8.02
2023-02-24T17:34:32.558Z,7.30
2023-02-24T17:36:59.852Z,6.78
2023-02-24T17:39:45.781Z,6.40
2023-02-24T17:42:31.601Z,7.25
2023-02-24T17:44:59.205Z,7.10
2023-02-24T17:47:44.800Z,6.85
2023-02-24T17:50:30.760Z,7.55
2023-02-24T17:53:16.495Z,7.65
2023-02-24T17:56:05.787Z,7.15
2023-02-24T17:58:51.895Z,8.05
2023-02-24T18:01:40.874Z,7.13
2023-02-24T18:04:31.799Z,5.95
2023-02-24T18:07:17.945Z,6.95
2023-02-24T18:09:45.800Z,7.70
2023-02-24T18:12:33.260Z,6.78
2023-02-24T18:15:19.201Z,6.88
2023-02-24T18:18:06.907Z,5.55
2023-02-24T18:20:52.612Z,5.88
2023-02-24T18:23:41.032Z,6.32
2023-02-24T18:26:27.110Z,5.68
2023-02-24T18:28:55.072Z,6.45
2023-02-24T18:31:41.217Z,6.25
2023-02-24T18:34:09.230Z,5.72
2023-02-24T18:36:36.607Z,6.43
2023-02-24T18:39:24.400Z,6.18
2023-02-24T18:42:10.275Z,6.97
2023-02-24T18:44:56.704Z,6.55
2023-02-24T18:47:42.835Z,6.78
2023-02-24T18:50:31.886Z,7.50
2023-02-24T18:53:18.166Z,7.43
2023-02-24T18:56:27.322Z,6.93
2023-02-24T18:59:13.440Z,7.32
2023-02-24T19:02:02.579Z,7.50
2023-02-24T19:04:48.871Z,8.77
2023-02-24T19:07:36.114Z,8.85
2023-02-24T19:10:22.047Z,10.10
2023-02-24T19:13:02.571Z,10.05
2023-02-24T19:15:48.777Z,9.40
2023-02-24T19:18:36.308Z,9.68
2023-02-24T19:21:23.102Z,9.75
2023-02-24T19:24:11.322Z,10.30
2023-02-24T19:26:57.662Z,10.40
2023-02-24T19:29:45.164Z,10.27
2023-02-24T19:32:31.131Z,10.48
2023-02-24T19:35:09.519Z,11.00
2023-02-24T19:37:39.433Z,10.57
2023-02-24T19:40:26.471Z,10.77
2023-02-24T19:43:14.115Z,10.38
2023-02-24T19:46:08.333Z,11.00
2023-02-24T19:48:48.710Z,11.00
2023-02-24T19:51:36.052Z,10.52
2023-02-24T19:54:25.732Z,11.95
2023-02-24T19:57:11.420Z,10.77
2023-02-24T19:59:59.311Z,11.40
2023-02-24T20:02:27.428Z,9.25
2023-02-24T20:05:13.425Z,11.15
2023-02-24T20:10:34.246Z,10.38
2023-02-24T20:13:23.720Z,9.27
2023-02-24T20:16:13.903Z,9.20
2023-02-24T20:18:55.577Z,8.75
2023-02-24T20:21:45.529Z,9.27
2023-02-24T20:24:36.941Z,8.77
2023-02-24T20:27:26.919Z,9.73
2023-02-24T20:29:57.309Z,10.13
2023-02-24T20:32:45.567Z,10.82
2023-02-24T20:35:13.200Z,9.30
2023-02-24T20:38:06.324Z,9.50
2023-02-24T20:40:43.693Z,9.70
2023-02-24T20:43:23.650Z,12.93
2023-02-24T20:46:31.425Z,9.70
2023-02-24T20:49:24.801Z,10.43
2023-02-24T20:52:12.337Z,9.85
2023-02-24T20:55:01.910Z,10.73
2023-02-24T20:57:56.194Z,11.15
2023-02-24T21:00:48.270Z,11.13
2023-02-24T21:03:41.918Z,10.25
2023-02-24T21:18:38.051Z,12.50
2023-02-24T21:33:09.761Z,10.82
2023-02-24T21:36:05.105Z,12.23
2023-02-24T21:38:54.365Z,12.45
2023-02-24T21:41:53.298Z,11.75
2023-02-24T21:45:03.691Z,9.77
2023-02-24T21:47:34.474Z,11.50
2023-02-24T21:50:15.337Z,12.52
2023-02-24T21:52:54.956Z,12.43
2023-02-24T21:55:26.803Z,9.52
2023-02-24T21:58:07.493Z,10.90
2023-02-24T22:00:34.955Z,9.43
2023-02-24T22:03:07.510Z,8.07
2023-02-24T22:05:34.973Z,8.20
2023-02-24T22:08:05.663Z,7.55
2023-02-24T22:10:33.153Z,5.78
2023-02-24T22:13:02.810Z,6.75
2023-02-24T22:15:33.078Z,6.65
2023-02-24T22:18:00.391Z,7.18
2023-02-24T22:20:38.120Z,5.93
2023-02-24T22:23:07.550Z,5.28
2023-02-24T22:25:37.879Z,6.80
2023-02-24T22:28:12.690Z,5.55
2023-02-24T22:30:42.597Z,4.80
2023-02-24T22:33:09.968Z,5.55
2023-02-24T22:35:42.813Z,5.13
2023-02-24T22:38:13.597Z,4.80
2023-02-24T22:40:59.625Z,4.00
2023-02-24T22:43:33.901Z,4.30
2023-02-24T22:46:07.229Z,4.38
2023-02-24T22:48:37.921Z,3.88
2023-02-24T22:51:10.316Z,3.90
2023-02-24T22:53:44.455Z,3.63
2023-02-24T22:56:13.414Z,3.85
2023-02-24T22:58:46.229Z,3.95
2023-02-24T23:01:25.535Z,4.22
2023-02-24T23:03:58.939Z,4.03
2023-02-24T23:06:30.118Z,4.55
2023-02-24T23:08:59.730Z,4.20
2023-02-24T23:11:36.452Z,3.60
2023-02-24T23:14:10.151Z,3.35
2023-02-24T23:16:41.514Z,5.00
2023-02-24T23:19:16.866Z,4.07
2023-02-24T23:21:47.170Z,4.22
2023-02-24T23:24:21.701Z,3.05
2023-02-24T23:26:57.989Z,4.10
2023-02-24T23:29:26.730Z,3.25
2023-02-24T23:32:12.447Z,3.72
2023-02-24T23:34:58.177Z,3.72
2023-02-24T23:37:28.283Z,4.10
2023-02-24T23:40:17.223Z,4.07
2023-02-24T23:43:03.014Z,4.63
2023-02-24T23:45:49.183Z,3.45
2023-02-24T23:48:35.007Z,3.78
2023-02-24T23:51:13.970Z,3.75
2023-02-24T23:53:45.920Z,4.57
2023-02-24T23:56:21.761Z,4.25
2023-02-24T23:58:56.945Z,4.90
